createdAt,value
2018-06-21T00:02:12.186Z,21.30
2018-06-21T00:04:41.133Z,21.20
2018-06-21T00:07:10.082Z,21.10
2018-06-21T00:09:39.002Z,21.00
2018-06-21T00:12:07.943Z,20.90
2018-06-21T00:14:36.812Z,20.90
2018-06-21T00:22:02.711Z,20.80
2018-06-21T00:24:31.610Z,20.90
2018-06-21T00:27:00.516Z,20.80
2018-06-21T00:31:57.938Z,20.90
2018-06-21T00:34:26.877Z,21.00
2018-06-21T00:36:55.769Z,20.50
2018-06-21T00:39:24.675Z,20.40
2018-06-21T00:41:53.593Z,20.10
2018-06-21T00:44:22.505Z,20.30
2018-06-21T00:46:51.413Z,20.20
2018-06-21T00:49:20.369Z,20.20
2018-06-21T00:51:49.305Z,20.00
2018-06-21T00:54:18.194Z,20.10
2018-06-21T00:56:47.101Z,20.40
2018-06-21T00:59:16.025Z,20.40
2018-06-21T01:01:44.904Z,20.60
2018-06-21T01:06:42.248Z,20.80
2018-06-21T01:09:11.168Z,20.90
2018-06-21T01:14:08.563Z,20.80
2018-06-21T01:16:37.573Z,20.90
2018-06-21T01:19:06.504Z,20.70
2018-06-21T01:21:35.423Z,20.60
2018-06-21T01:24:04.389Z,20.60
2018-06-21T01:29:01.761Z,20.70
2018-06-21T01:31:30.692Z,20.60
2018-06-21T01:33:59.590Z,20.60
2018-06-21T01:36:28.573Z,20.20
2018-06-21T01:38:57.478Z,20.30
2018-06-21T01:41:26.316Z,20.40
2018-06-21T01:43:55.201Z,20.40
2018-06-21T01:46:24.117Z,20.10
2018-06-21T01:48:53.124Z,19.90
2018-06-21T01:51:22.026Z,19.80
2018-06-21T01:53:50.906Z,19.70
2018-06-21T01:56:19.825Z,19.90
2018-06-21T01:58:48.700Z,19.90
2018-06-21T02:01:17.622Z,20.00
2018-06-21T02:03:46.599Z,19.80
2018-06-21T02:06:15.534Z,19.40
2018-06-21T02:11:12.981Z,19.40
2018-06-21T02:13:41.992Z,19.60
2018-06-21T02:16:10.860Z,19.60
2018-06-21T02:18:39.769Z,19.60
2018-06-21T02:23:37.164Z,19.90
2018-06-21T02:26:06.381Z,20.00
2018-06-21T02:28:35.324Z,20.10
2018-06-21T02:31:04.221Z,19.60
2018-06-21T02:38:30.103Z,19.60
2018-06-21T02:40:59.175Z,19.50
2018-06-21T02:45:56.560Z,19.80
2018-06-21T02:48:25.464Z,19.80
2018-06-21T02:50:54.444Z,19.40
2018-06-21T02:53:23.337Z,19.50
2018-06-21T02:55:52.243Z,19.50
2018-06-21T02:58:21.221Z,19.60
2018-06-21T03:00:50.169Z,19.70
2018-06-21T03:03:19.152Z,19.60
2018-06-21T03:05:48.082Z,19.70
2018-06-21T03:08:17.949Z,19.80
2018-06-21T03:10:46.841Z,19.70
2018-06-21T03:13:15.693Z,19.70
2018-06-21T03:15:44.663Z,19.50
2018-06-21T03:18:13.544Z,19.50
2018-06-21T03:20:42.449Z,19.40
2018-06-21T03:23:11.332Z,19.40
2018-06-21T03:25:40.299Z,19.40
2018-06-21T03:28:09.243Z,19.40
2018-06-21T03:30:38.167Z,19.30
2018-06-21T03:33:07.251Z,19.40
2018-06-21T03:35:36.163Z,19.60
2018-06-21T03:38:05.139Z,19.40
2018-06-21T03:40:34.069Z,19.30
2018-06-21T03:45:31.436Z,19.20
2018-06-21T03:50:28.839Z,19.30
2018-06-21T03:52:57.734Z,19.30
2018-06-21T03:55:26.606Z,19.30
2018-06-21T03:57:55.514Z,19.30
2018-06-21T04:00:24.921Z,19.20
2018-06-21T04:02:53.994Z,19.10
2018-06-21T04:05:22.998Z,19.20
2018-06-21T04:07:51.898Z,19.00
2018-06-21T04:10:20.818Z,18.90
2018-06-21T04:12:49.724Z,18.90
2018-06-21T04:15:18.624Z,18.80
2018-06-21T04:20:16.150Z,18.90
2018-06-21T04:22:45.013Z,18.90
2018-06-21T04:25:13.892Z,18.80
2018-06-21T04:27:42.818Z,18.70
2018-06-21T04:30:11.884Z,18.40
2018-06-21T04:32:47.556Z,18.30
2018-06-21T04:35:16.476Z,18.30
2018-06-21T04:37:45.388Z,18.30
2018-06-21T04:45:11.256Z,18.30
2018-06-21T04:47:40.282Z,18.30
2018-06-21T04:50:09.205Z,18.20
2018-06-21T04:52:38.185Z,18.20
2018-06-21T04:55:07.185Z,18.20
2018-06-21T04:57:36.250Z,18.20
2018-06-21T05:00:05.408Z,18.10
2018-06-21T05:02:34.325Z,18.00
2018-06-21T05:05:03.218Z,18.10
2018-06-21T05:07:32.114Z,18.10
2018-06-21T05:10:01.245Z,18.10
2018-06-21T05:12:30.159Z,18.10
2018-06-21T05:19:56.077Z,18.00
2018-06-21T05:22:24.976Z,17.90
2018-06-21T05:24:53.948Z,17.80
2018-06-21T05:27:22.868Z,17.70
2018-06-21T05:29:51.891Z,17.70
2018-06-21T05:32:20.770Z,17.80
2018-06-21T05:37:18.196Z,17.90
2018-06-21T05:39:47.292Z,18.00
2018-06-21T05:42:16.260Z,18.00
2018-06-21T05:44:45.215Z,18.10
2018-06-21T05:47:14.475Z,18.20
2018-06-21T05:49:43.374Z,18.20
2018-06-21T05:52:12.348Z,18.20
2018-06-21T05:54:41.289Z,18.30
2018-06-21T05:57:10.213Z,18.40
2018-06-21T05:59:39.155Z,18.50
2018-06-21T06:02:08.061Z,18.50
2018-06-21T06:04:36.992Z,18.60
2018-06-21T06:07:06.041Z,18.70
2018-06-21T06:14:31.894Z,18.90
2018-06-21T06:19:29.403Z,19.10
2018-06-21T06:21:58.325Z,19.20
2018-06-21T06:24:27.230Z,19.30
2018-06-21T06:26:56.165Z,19.40
2018-06-21T06:29:25.051Z,19.50
2018-06-21T06:31:53.998Z,19.60
2018-06-21T06:34:22.899Z,19.70
2018-06-21T06:36:51.815Z,19.80
2018-06-21T06:39:21.596Z,19.80
2018-06-21T06:41:51.517Z,19.90
2018-06-21T06:46:49.055Z,20.00
2018-06-21T06:49:17.961Z,20.10
2018-06-21T06:51:46.814Z,20.20
2018-06-21T06:54:15.818Z,20.20
2018-06-21T06:56:44.701Z,20.30
2018-06-21T06:59:13.620Z,20.30
2018-06-21T07:01:42.506Z,20.40
2018-06-21T07:04:11.458Z,20.40
2018-06-21T07:06:40.355Z,20.50
2018-06-21T07:09:10.114Z,20.60
2018-06-21T07:11:39.039Z,20.60
2018-06-21T07:14:07.957Z,20.70
2018-06-21T07:16:37.005Z,20.70
2018-06-21T07:19:06.596Z,20.70
2018-06-21T07:21:39.592Z,20.80
2018-06-21T07:24:09.246Z,20.90
2018-06-21T07:26:39.180Z,21.10
2018-06-21T07:29:08.747Z,21.10
2018-06-21T07:31:37.672Z,21.20
2018-06-21T07:34:06.701Z,21.30
2018-06-21T07:36:35.628Z,21.40
2018-06-21T07:39:06.729Z,21.50
2018-06-21T07:41:35.634Z,21.70
2018-06-21T07:46:33.622Z,21.80
2018-06-21T07:51:31.344Z,21.90
2018-06-21T07:54:00.281Z,22.00
2018-06-21T07:58:57.743Z,22.10
2018-06-21T08:01:26.639Z,22.20
2018-06-21T08:03:55.533Z,22.40
2018-06-21T08:06:24.424Z,22.50
2018-06-21T08:08:53.340Z,22.40
2018-06-21T08:11:22.489Z,22.40
2018-06-21T08:13:51.384Z,22.60
2018-06-21T08:16:20.299Z,22.70
2018-06-21T08:18:49.174Z,22.70
2018-06-21T08:21:18.080Z,22.80
2018-06-21T08:26:15.519Z,23.00
2018-06-21T08:28:44.452Z,23.10
2018-06-21T08:33:41.797Z,23.20
2018-06-21T08:36:10.775Z,23.20
2018-06-21T08:38:39.663Z,23.40
2018-06-21T08:41:08.766Z,23.50
2018-06-21T08:43:37.930Z,23.50
2018-06-21T08:46:07.189Z,23.60
2018-06-21T08:51:04.930Z,23.60
2018-06-21T08:53:33.857Z,23.80
2018-06-21T08:56:02.791Z,23.80
2018-06-21T08:58:31.766Z,23.90
2018-06-21T09:01:00.648Z,23.80
2018-06-21T09:03:29.555Z,23.80
2018-06-21T09:05:58.574Z,23.90
2018-06-21T09:08:27.681Z,23.90
2018-06-21T09:10:56.609Z,23.90
2018-06-21T09:13:33.231Z,24.10
2018-06-21T09:16:02.733Z,24.10
2018-06-21T09:18:31.614Z,24.20
2018-06-21T09:21:00.695Z,24.20
2018-06-21T09:23:29.639Z,24.30
2018-06-21T09:25:58.554Z,24.40
2018-06-21T09:28:27.465Z,24.50
2018-06-21T09:30:56.472Z,24.70
2018-06-21T09:33:25.349Z,24.70
2018-06-21T09:35:54.605Z,24.80
2018-06-21T09:41:02.814Z,25.00
2018-06-21T09:43:36.900Z,25.10
2018-06-21T09:46:11.021Z,25.10
2018-06-21T09:48:44.028Z,25.20
2018-06-21T09:51:12.967Z,25.20
2018-06-21T09:53:41.961Z,25.30
2018-06-21T09:56:10.812Z,25.20
2018-06-21T10:01:08.225Z,25.40
2018-06-21T10:03:37.114Z,25.40
2018-06-21T10:06:06.081Z,25.50
2018-06-21T10:08:35.160Z,25.50
2018-06-21T10:13:32.518Z,25.70
2018-06-21T10:16:01.447Z,25.70
2018-06-21T10:18:30.387Z,25.80
2018-06-21T10:20:59.270Z,25.90
2018-06-21T10:23:28.176Z,25.90
2018-06-21T10:25:57.083Z,25.90
2018-06-21T10:28:25.977Z,25.90
2018-06-21T10:33:23.369Z,26.00
2018-06-21T10:35:52.404Z,26.10
2018-06-21T10:38:21.329Z,26.20
2018-06-21T10:45:47.341Z,26.60
2018-06-21T10:48:16.299Z,26.70
2018-06-21T10:50:45.198Z,26.70
2018-06-21T10:53:14.155Z,27.10
2018-06-21T10:58:11.664Z,27.10
2018-06-21T11:00:40.646Z,27.10
2018-06-21T11:03:09.635Z,27.10
2018-06-21T11:08:07.190Z,27.10
2018-06-21T11:13:04.938Z,27.60
2018-06-21T11:15:33.864Z,27.70
2018-06-21T11:18:02.797Z,27.90
2018-06-21T11:20:31.711Z,28.10
2018-06-21T11:23:00.681Z,28.30
2018-06-21T11:25:29.639Z,28.40
2018-06-21T11:27:58.567Z,28.40
2018-06-21T11:30:27.655Z,28.60
2018-06-21T11:32:56.550Z,28.60
2018-06-21T11:35:25.475Z,28.80
2018-06-21T11:37:54.403Z,29.00
2018-06-21T11:40:23.328Z,29.00
2018-06-21T11:42:52.212Z,29.10
2018-06-21T11:45:21.116Z,29.20
2018-06-21T11:47:50.040Z,29.30
2018-06-21T11:52:47.482Z,29.50
2018-06-21T11:55:16.381Z,29.60
2018-06-21T11:57:45.314Z,29.70
2018-06-21T12:00:14.250Z,29.80
2018-06-21T12:02:43.222Z,29.90
2018-06-21T12:05:12.168Z,30.20
2018-06-21T12:07:41.082Z,30.10
2018-06-21T12:10:10.003Z,29.70
2018-06-21T12:12:38.957Z,29.40
2018-06-21T12:15:07.880Z,29.10
2018-06-21T12:17:36.869Z,28.80
2018-06-21T12:20:05.804Z,28.70
2018-06-21T12:22:34.809Z,28.70
2018-06-21T12:27:32.251Z,29.50
2018-06-21T12:30:01.190Z,29.70
2018-06-21T12:32:30.142Z,29.90
2018-06-21T12:34:59.220Z,30.00
2018-06-21T12:37:28.334Z,30.10
2018-06-21T12:39:57.276Z,30.30
2018-06-21T12:42:26.232Z,30.30
2018-06-21T12:52:20.882Z,30.60
2018-06-21T12:57:18.326Z,30.80
2018-06-21T12:59:47.217Z,30.70
2018-06-21T13:02:17.136Z,30.70
2018-06-21T13:04:46.251Z,30.90
2018-06-21T13:07:15.171Z,31.00
2018-06-21T13:09:54.906Z,30.90
2018-06-21T13:12:37.901Z,30.90
2018-06-21T13:15:06.877Z,30.80
2018-06-21T13:17:35.811Z,30.70
2018-06-21T13:20:05.765Z,30.60
2018-06-21T13:22:34.688Z,30.70
2018-06-21T13:27:32.124Z,30.90
2018-06-21T13:30:01.290Z,31.20
2018-06-21T13:32:30.237Z,31.30
2018-06-21T13:34:59.153Z,31.30
2018-06-21T13:37:28.104Z,31.10
2018-06-21T13:39:57.089Z,31.00
2018-06-21T13:42:25.985Z,30.90
2018-06-21T13:44:54.932Z,31.00
2018-06-21T13:47:23.837Z,31.00
2018-06-21T13:49:52.809Z,30.90
2018-06-21T13:52:21.732Z,30.80
2018-06-21T13:54:50.664Z,30.70
2018-06-21T13:59:48.327Z,30.40
2018-06-21T14:02:17.265Z,30.30
2018-06-21T14:04:46.269Z,30.20
2018-06-21T14:07:15.179Z,30.30
2018-06-21T14:09:44.084Z,30.30
2018-06-21T14:12:13.034Z,30.30
2018-06-21T14:14:42.047Z,30.20
2018-06-21T14:17:11.084Z,30.20
2018-06-21T14:22:08.522Z,30.00
2018-06-21T14:24:37.575Z,29.90
2018-06-21T14:27:06.508Z,29.80
2018-06-21T14:29:35.604Z,29.80
2018-06-21T14:32:04.495Z,29.70
2018-06-21T14:34:33.460Z,29.60
2018-06-21T14:37:02.437Z,29.50
2018-06-21T14:39:31.384Z,29.40
2018-06-21T14:42:00.443Z,29.40
2018-06-21T14:44:29.435Z,29.20
2018-06-21T14:46:58.382Z,29.20
2018-06-21T14:51:55.863Z,29.10
2018-06-21T14:56:53.312Z,29.00
2018-06-21T15:01:50.762Z,29.00
2018-06-21T15:04:20.315Z,28.90
2018-06-21T15:06:49.272Z,28.80
2018-06-21T15:09:18.159Z,28.70
2018-06-21T15:11:47.066Z,28.70
2018-06-21T15:16:44.471Z,28.60
2018-06-21T15:19:13.410Z,28.50
2018-06-21T15:21:43.409Z,28.30
2018-06-21T15:24:12.333Z,28.20
2018-06-21T15:29:09.832Z,28.10
2018-06-21T15:31:38.770Z,28.20
2018-06-21T15:34:07.997Z,28.10
2018-06-21T15:39:16.644Z,28.00
2018-06-21T15:41:45.603Z,28.00
2018-06-21T15:44:14.569Z,28.00
2018-06-21T15:46:49.820Z,28.00
2018-06-21T15:49:18.764Z,27.90
2018-06-21T15:51:47.659Z,27.80
2018-06-21T15:54:16.579Z,27.70
2018-06-21T15:56:45.475Z,27.50
2018-06-21T15:59:14.458Z,27.50
2018-06-21T16:01:43.365Z,27.50
2018-06-21T16:04:13.364Z,27.40
2018-06-21T16:06:42.294Z,27.30
2018-06-21T16:09:11.270Z,27.10
2018-06-21T16:11:40.655Z,27.00
2018-06-21T16:14:09.602Z,26.90
2018-06-21T16:19:07.050Z,26.80
2018-06-21T16:21:36.040Z,26.80
2018-06-21T16:24:05.045Z,26.80
2018-06-21T16:29:02.405Z,26.70
2018-06-21T16:31:31.289Z,26.80
2018-06-21T16:34:00.195Z,26.70
2018-06-21T16:36:29.147Z,26.70
2018-06-21T16:38:58.078Z,26.70
2018-06-21T16:43:55.432Z,26.80
2018-06-21T16:46:24.412Z,26.80
2018-06-21T16:48:53.303Z,26.70
2018-06-21T16:51:22.207Z,26.70
2018-06-21T16:53:51.115Z,26.60
2018-06-21T16:58:48.796Z,26.20
2018-06-21T17:03:46.208Z,26.20
2018-06-21T17:06:15.221Z,26.10
2018-06-21T17:08:44.141Z,26.00
2018-06-21T17:13:41.671Z,25.90
2018-06-21T17:16:10.591Z,25.90
2018-06-21T17:18:39.725Z,25.80
2018-06-21T17:21:08.916Z,25.70
2018-06-21T17:23:37.869Z,25.60
2018-06-21T17:26:06.716Z,25.60
2018-06-21T17:28:35.722Z,25.60
